createdAt,value
2023-03-18T00:01:16.241Z,55.17
2023-03-18T00:06:19.876Z,55.26
2023-03-18T00:11:21.704Z,55.19
2023-03-18T00:16:23.571Z,55.07
2023-03-18T00:21:25.269Z,55.08
2023-03-18T00:26:28.578Z,55.01
2023-03-18T00:31:30.453Z,55.12
2023-03-18T00:36:32.427Z,55.05
2023-03-18T00:41:36.428Z,54.99
2023-03-18T00:46:38.459Z,55.10
2023-03-18T00:51:42.189Z,55.02
2023-03-18T00:56:43.942Z,54.94
2023-03-18T01:01:45.498Z,54.94
2023-03-18T01:06:47.025Z,54.96
2023-03-18T01:11:48.513Z,55.01
2023-03-18T01:16:50.050Z,54.90
2023-03-18T01:21:51.706Z,54.94
2023-03-18T01:26:53.883Z,54.95
2023-03-18T01:31:55.915Z,54.99
2023-03-18T01:36:58.288Z,54.92
2023-03-18T01:42:00.736Z,54.92
2023-03-18T01:47:03.463Z,54.96
2023-03-18T01:52:27.250Z,54.91
2023-03-18T01:57:30.149Z,55.15
2023-03-18T02:02:34.067Z,55.02
2023-03-18T02:07:37.171Z,55.13
2023-03-18T02:12:42.323Z,55.19
2023-03-18T02:17:53.634Z,55.21
2023-03-18T02:23:03.507Z,55.11
2023-03-18T02:28:10.773Z,55.37
2023-03-18T02:33:15.103Z,55.20
2023-03-18T02:38:16.522Z,55.16
2023-03-18T02:43:18.046Z,55.14
2023-03-18T02:48:23.776Z,55.06
2023-03-18T02:53:26.319Z,55.09
2023-03-18T02:58:28.272Z,55.01
2023-03-18T03:03:29.969Z,54.91
2023-03-18T03:08:31.962Z,54.96
2023-03-18T03:13:33.698Z,55.02
2023-03-18T03:18:35.658Z,55.02
2023-03-18T03:23:38.058Z,54.88
2023-03-18T03:28:39.869Z,55.06
2023-03-18T03:33:43.572Z,55.02
2023-03-18T03:38:45.997Z,55.04
2023-03-18T03:43:47.577Z,55.04
2023-03-18T03:48:49.812Z,54.92
2023-03-18T03:53:51.498Z,55.02
2023-03-18T03:58:53.614Z,55.06
2023-03-18T04:03:55.793Z,55.14
2023-03-18T04:08:57.342Z,55.42
2023-03-18T04:13:58.885Z,55.44
2023-03-18T04:19:00.466Z,55.36
2023-03-18T04:24:03.980Z,55.54
2023-03-18T04:29:05.737Z,55.52
2023-03-18T04:34:07.285Z,55.71
2023-03-18T04:39:10.439Z,55.88
2023-03-18T04:44:11.999Z,55.87
2023-03-18T04:49:13.552Z,55.96
2023-03-18T04:54:15.092Z,55.94
2023-03-18T04:59:17.079Z,56.00
2023-03-18T05:04:18.691Z,56.14
2023-03-18T05:09:20.237Z,56.15
2023-03-18T05:14:22.101Z,55.98
2023-03-18T05:19:25.311Z,56.07
2023-03-18T05:24:27.507Z,56.00
2023-03-18T05:29:29.085Z,55.96
2023-03-18T05:34:31.472Z,55.66
2023-03-18T05:39:33.920Z,55.58
2023-03-18T05:44:35.800Z,55.40
2023-03-18T05:49:37.626Z,55.35
2023-03-18T05:54:39.554Z,55.14
2023-03-18T05:59:41.465Z,54.87
2023-03-18T06:04:43.010Z,54.64
2023-03-18T06:09:44.690Z,54.23
2023-03-18T06:14:46.670Z,53.55
2023-03-18T06:19:48.336Z,53.31
2023-03-18T06:24:49.826Z,53.16
2023-03-18T06:29:51.504Z,52.90
2023-03-18T06:34:52.994Z,52.38
2023-03-18T06:39:54.575Z,52.37
2023-03-18T06:44:56.048Z,51.78
2023-03-18T06:49:58.050Z,51.25
2023-03-18T06:55:00.438Z,51.29
2023-03-18T07:00:02.695Z,50.69
2023-03-18T07:05:04.688Z,50.61
2023-03-18T07:10:09.305Z,50.28
2023-03-18T07:15:11.716Z,50.02
2023-03-18T07:20:14.041Z,49.50
2023-03-18T07:25:15.586Z,48.84
2023-03-18T07:30:18.891Z,49.33
2023-03-18T07:35:20.711Z,48.84
2023-03-18T07:40:23.569Z,48.29
2023-03-18T07:45:25.668Z,48.88
2023-03-18T07:50:27.938Z,48.39
2023-03-18T07:55:29.510Z,47.97
2023-03-18T08:00:39.267Z,48.06
2023-03-18T08:05:41.333Z,47.87
2023-03-18T08:10:42.970Z,47.67
2023-03-18T08:15:44.572Z,47.27
2023-03-18T08:20:46.078Z,46.91
2023-03-18T08:25:52.194Z,46.89
2023-03-18T08:30:56.064Z,46.99
2023-03-18T08:35:58.099Z,46.38
2023-03-18T08:40:59.794Z,46.10
2023-03-18T08:46:01.427Z,45.91
2023-03-18T08:51:04.893Z,45.49
2023-03-18T08:56:07.875Z,45.60
2023-03-18T09:01:11.904Z,45.37
2023-03-18T09:06:14.279Z,45.26
2023-03-18T09:11:16.352Z,44.87
2023-03-18T09:16:18.512Z,44.80
2023-03-18T09:21:20.320Z,44.54
2023-03-18T09:26:22.007Z,44.03
2023-03-18T09:31:23.552Z,43.84
2023-03-18T09:36:25.124Z,43.38
2023-03-18T09:41:32.648Z,43.40
2023-03-18T09:47:00.675Z,43.38
2023-03-18T09:52:23.753Z,42.45
2023-03-18T09:57:46.161Z,42.01
2023-03-18T10:02:56.468Z,41.82
2023-03-18T10:08:05.775Z,41.82
2023-03-18T10:13:23.025Z,41.63
2023-03-18T10:18:34.707Z,41.28
2023-03-18T10:23:52.573Z,41.27
2023-03-18T10:29:12.218Z,40.50
2023-03-18T10:34:23.781Z,40.07
2023-03-18T10:39:27.700Z,39.58
2023-03-18T10:44:36.843Z,39.87
2023-03-18T10:49:47.385Z,40.01
2023-03-18T10:54:52.680Z,39.27
2023-03-18T10:59:54.662Z,38.94
2023-03-18T11:05:06.832Z,39.01
2023-03-18T11:10:15.213Z,38.36
2023-03-18T11:15:20.500Z,38.08
2023-03-18T11:20:32.090Z,38.09
2023-03-18T11:25:34.021Z,37.99
2023-03-18T11:30:50.230Z,37.92
2023-03-18T11:35:58.708Z,38.29
2023-03-18T11:41:17.009Z,38.19
2023-03-18T11:46:19.056Z,37.40
2023-03-18T11:51:46.661Z,37.70
2023-03-18T11:56:54.087Z,37.69
2023-03-18T12:02:17.614Z,37.35
2023-03-18T12:07:43.800Z,37.19
2023-03-18T12:12:54.584Z,36.53
2023-03-18T12:18:25.678Z,37.44
2023-03-18T12:23:54.690Z,36.88
2023-03-18T12:29:22.358Z,36.52
2023-03-18T12:35:02.766Z,36.57
2023-03-18T12:40:34.180Z,36.56
2023-03-18T12:45:40.897Z,35.99
2023-03-18T12:50:54.707Z,36.48
2023-03-18T12:56:04.921Z,35.67
2023-03-18T13:01:18.172Z,35.83
2023-03-18T13:06:36.012Z,36.10
2023-03-18T13:12:12.571Z,36.21
2023-03-18T13:17:20.673Z,35.99
2023-03-18T13:23:10.014Z,35.49
2023-03-18T13:28:42.609Z,36.38
2023-03-18T13:33:59.245Z,35.34
2023-03-18T13:39:15.512Z,35.56
2023-03-18T13:44:31.958Z,35.53
2023-03-18T13:49:34.136Z,35.24
2023-03-18T13:54:38.733Z,35.31
2023-03-18T13:59:40.198Z,35.46
2023-03-18T14:04:48.096Z,35.53
2023-03-18T14:09:52.481Z,35.28
2023-03-18T14:15:03.645Z,35.37
2023-03-18T14:20:21.906Z,35.74
2023-03-18T14:25:39.499Z,36.06
2023-03-18T14:31:00.919Z,36.00
2023-03-18T14:36:10.318Z,36.07
2023-03-18T14:41:37.183Z,36.01
2023-03-18T14:46:43.050Z,36.09
2023-03-18T14:51:55.832Z,36.16
2023-03-18T14:56:58.120Z,36.15
2023-03-18T15:02:03.387Z,36.66
2023-03-18T15:07:08.241Z,36.15
2023-03-18T15:12:19.538Z,36.47
2023-03-18T15:17:27.427Z,36.63
2023-03-18T15:22:31.513Z,36.86
2023-03-18T15:27:35.105Z,36.87
2023-03-18T15:32:49.921Z,37.03
2023-03-18T15:38:28.759Z,37.07
2023-03-18T15:43:30.491Z,37.74
2023-03-18T15:48:54.948Z,37.73
2023-03-18T15:54:09.407Z,37.78
2023-03-18T15:59:18.758Z,38.37
2023-03-18T16:04:21.746Z,38.13
2023-03-18T16:09:25.365Z,38.58
2023-03-18T16:14:39.680Z,39.02
2023-03-18T16:19:41.494Z,39.18
2023-03-18T16:24:43.945Z,39.56
2023-03-18T16:29:45.462Z,39.73
2023-03-18T16:34:47.489Z,39.96
2023-03-18T16:39:49.084Z,40.34
2023-03-18T16:44:51.704Z,40.68
2023-03-18T16:49:54.450Z,41.16
2023-03-18T16:54:56.017Z,41.48
2023-03-18T16:59:58.984Z,41.69
2023-03-18T17:05:01.787Z,41.72
2023-03-18T17:10:04.000Z,42.02
2023-03-18T17:15:07.419Z,42.20
2023-03-18T17:20:21.113Z,42.10
2023-03-18T17:25:27.236Z,42.37
2023-03-18T17:30:44.504Z,42.38
2023-03-18T17:35:46.182Z,42.59
2023-03-18T17:40:49.170Z,42.80
2023-03-18T17:45:50.802Z,42.73
2023-03-18T17:50:55.777Z,42.65
2023-03-18T17:55:57.714Z,42.61
2023-03-18T18:01:17.559Z,43.08
2023-03-18T18:06:29.285Z,43.09
2023-03-18T18:11:35.516Z,43.47
2023-03-18T18:16:37.595Z,43.52
2023-03-18T18:21:39.500Z,43.64
2023-03-18T18:26:41.049Z,43.59
2023-03-18T18:31:44.920Z,43.89
2023-03-18T18:36:46.673Z,43.87
2023-03-18T18:41:48.869Z,44.08
2023-03-18T18:46:50.791Z,44.08
2023-03-18T18:51:55.068Z,44.56
2023-03-18T18:56:58.711Z,44.64
2023-03-18T19:02:01.099Z,44.67
2023-03-18T19:07:06.562Z,44.65
2023-03-18T19:12:15.612Z,45.02
2023-03-18T19:17:20.000Z,45.00
2023-03-18T19:22:22.215Z,45.31
2023-03-18T19:27:27.604Z,45.62
2023-03-18T19:32:29.239Z,45.47
2023-03-18T19:37:32.680Z,45.88
2023-03-18T19:42:35.418Z,45.93
2023-03-18T19:47:37.515Z,46.05
2023-03-18T19:52:39.027Z,46.28
2023-03-18T19:57:41.671Z,46.26
2023-03-18T20:02:43.859Z,46.55
2023-03-18T20:07:46.366Z,46.84
2023-03-18T20:12:49.481Z,47.21
2023-03-18T20:17:51.930Z,47.33
2023-03-18T20:23:03.572Z,47.74
2023-03-18T20:28:06.447Z,47.64
2023-03-18T20:33:08.380Z,48.30
2023-03-18T20:38:22.185Z,48.04
2023-03-18T20:43:27.893Z,48.06
2023-03-18T20:48:29.474Z,48.45
2023-03-18T20:53:31.767Z,48.37
2023-03-18T20:58:33.372Z,48.54
2023-03-18T21:03:35.511Z,48.68
2023-03-18T21:08:37.209Z,48.77
2023-03-18T21:13:39.495Z,49.06
2023-03-18T21:18:49.986Z,49.25
2023-03-18T21:23:55.011Z,49.58
2023-03-18T21:28:57.693Z,49.46
2023-03-18T21:34:00.186Z,49.60
2023-03-18T21:39:01.663Z,49.89
2023-03-18T21:44:03.439Z,49.48
2023-03-18T21:49:05.911Z,49.89
2023-03-18T21:54:18.475Z,50.16
2023-03-18T21:59:20.024Z,50.44
2023-03-18T22:04:22.222Z,50.27
2023-03-18T22:09:26.604Z,50.52
2023-03-18T22:14:28.225Z,50.70
2023-03-18T22:19:29.757Z,51.22
2023-03-18T22:24:31.298Z,51.21
2023-03-18T22:29:32.825Z,51.44
2023-03-18T22:34:34.349Z,51.58
2023-03-18T22:39:35.817Z,51.80
2023-03-18T22:44:37.310Z,51.74
2023-03-18T22:49:39.162Z,51.94
2023-03-18T22:54:40.832Z,51.61
2023-03-18T22:59:42.351Z,51.67
2023-03-18T23:04:44.618Z,51.87
2023-03-18T23:09:56.288Z,52.27
2023-03-18T23:14:59.238Z,52.06
2023-03-18T23:20:00.879Z,52.37
2023-03-18T23:25:03.392Z,52.28
2023-03-18T23:30:06.821Z,52.55
2023-03-18T23:35:09.451Z,52.64
2023-03-18T23:40:11.597Z,53.03
2023-03-18T23:45:13.369Z,53.67
2023-03-18T23:50:14.973Z,53.23
2023-03-18T23:55:33.205Z,54.25
